sensor_id;sensor_type;location;lat;lon;timestamp;pressure;altitude;pressure_sealevel;temperature;humidity
46382;BME280;66809;52.974;-2.514;2023-02-28T00:01:48;1027.9198627616456;;;4.686275327793334;41.65855657711678
46382;BME280;66809;52.974;-2.514;2023-02-28T00:03:48;1027.92718060649;;;4.656556709605382;41.71719600605937
46382;BME280;66809;52.974;-2.514;2023-02-28T00:05:47;1027.935481295738;;;4.624991522722939;41.77652524121114
46382;BME280;66809;52.974;-2.514;2023-02-28T00:07:48;1027.9463295007308;;;4.6066228661580615;41.84077444049007
46382;BME280;66809;52.974;-2.514;2023-02-28T00:09:47;1027.9577451533125;;;4.574661043467223;41.914591919939966
46382;BME280;66809;52.974;-2.514;2023-02-28T00:11:48;1027.967572209748;;;4.555116704414837;41.97799543736697
46382;BME280;66809;52.974;-2.514;2023-02-28T00:13:48;1027.977484408417;;;4.540305424380275;42.03513404850716
46382;BME280;66809;52.974;-2.514;2023-02-28T00:15:47;1027.9869101753993;;;4.529617506248964;42.09083229575831
46382;BME280;66809;52.974;-2.514;2023-02-28T00:17:48;1027.9958315361398;;;4.525699446991989;42.14732605214718
46382;BME280;66809;52.974;-2.514;2023-02-28T00:19:48;1028.0057459032864;;;4.51998523561522;42.20179293086903
46382;BME280;66809;52.974;-2.514;2023-02-28T00:21:47;1028.0166046537486;;;4.5125000851742785;42.253352880251704
46382;BME280;66809;52.974;-2.514;2023-02-28T00:23:48;1028.0274231911749;;;4.4933643074645735;42.29833494186726
46382;BME280;66809;52.974;-2.514;2023-02-28T00:25:47;1028.0386359007196;;;4.490566023906837;42.33295937514184
46382;BME280;66809;52.974;-2.514;2023-02-28T00:27:47;1028.050701570273;;;4.478575771121494;42.35849779184521
46382;BME280;66809;52.974;-2.514;2023-02-28T00:29:47;1028.0625123142574;;;4.5022502572317995;42.3745741470547
46382;BME280;66809;52.974;-2.514;2023-02-28T00:31:48;1028.0745275348445;;;4.514928208432382;42.37838921585849
46382;BME280;66809;52.974;-2.514;2023-02-28T00:33:48;1028.0865603389307;;;4.527489079946603;42.37265939265995
46382;BME280;66809;52.974;-2.514;2023-02-28T00:35:47;1028.0993874998576;;;4.543234147725131;42.366645884129795
46382;BME280;66809;52.974;-2.514;2023-02-28T00:37:48;1028.113135273509;;;4.576981418244221;42.36257648140441
46382;BME280;66809;52.974;-2.514;2023-02-28T00:39:47;1028.1263517198397;;;4.595206700464246;42.35359152384419
46382;BME280;66809;52.974;-2.514;2023-02-28T00:41:47;1028.139303758104;;;4.620742558916863;42.34625682381664
46382;BME280;66809;52.974;-2.514;2023-02-28T00:43:48;1028.151635846212;;;4.659391436630803;42.3311222526911
46382;BME280;66809;52.974;-2.514;2023-02-28T00:45:47;1028.1631627929248;;;4.696620455310991;42.31810862524578
46382;BME280;66809;52.974;-2.514;2023-02-28T00:47:48;1028.1726855459788;;;4.734160322784929;42.30683697311585
46382;BME280;66809;52.974;-2.514;2023-02-28T00:49:47;1028.181371632005;;;4.766650844404538;42.299140253435596
46382;BME280;66809;52.974;-2.514;2023-02-28T00:51:48;1028.1898147232628;;;4.794940616473638;42.30283705463445
46382;BME280;66809;52.974;-2.514;2023-02-28T00:53:47;1028.1986525589014;;;4.827152143684813;42.310302199411396
46382;BME280;66809;52.974;-2.514;2023-02-28T00:55:48;1028.2081184034994;;;4.855080656028809;42.31632149920855
46382;BME280;66809;52.974;-2.514;2023-02-28T00:57:47;1028.2180557688202;;;4.877918353523191;42.31539996928282
46382;BME280;66809;52.974;-2.514;2023-02-28T00:59:48;1028.2267260683489;;;4.904467763675986;42.31302429236306
46382;BME280;66809;52.974;-2.514;2023-02-28T01:01:47;1028.2337939716488;;;4.923799001066717;42.306579963552174
46382;BME280;66809;52.974;-2.514;2023-02-28T01:03:48;1028.2425714697226;;;4.940890041077988;42.30563803334256
46382;BME280;66809;52.974;-2.514;2023-02-28T01:05:48;1028.2492595660121;;;4.954945122390601;42.305751215694336
46382;BME280;66809;52.974;-2.514;2023-02-28T01:07:47;1028.2540394440728;;;4.971169014961558;42.31030878094388
46382;BME280;66809;52.974;-2.514;2023-02-28T01:09:48;1028.2589109643332;;;4.992695507822867;42.31380854250813
46382;BME280;66809;52.974;-2.514;2023-02-28T01:11:48;1028.2653908613254;;;5.010657998589375;42.32297634669532
46382;BME280;66809;52.974;-2.514;2023-02-28T01:13:48;1028.2716637799845;;;5.026417522171595;42.34372218528158
46382;BME280;66809;52.974;-2.514;2023-02-28T01:15:51;1028.2790188078272;;;5.026383916094345;42.378250542057316
46382;BME280;66809;52.974;-2.514;2023-02-28T01:17:47;1028.286965722685;;;5.016270229415601;42.41991621249899
46382;BME280;66809;52.974;-2.514;2023-02-28T01:19:47;1028.2952843838814;;;5.007095746593152;42.46649693228175
46382;BME280;66809;52.974;-2.514;2023-02-28T01:21:48;1028.3024105088355;;;5.002086658804577;42.51287995694807
46382;BME280;66809;52.974;-2.514;2023-02-28T01:23:48;1028.3081266405677;;;4.999268601065855;42.56273596514338
46382;BME280;66809;52.974;-2.514;2023-02-28T01:25:47;1028.314896876934;;;4.994227147456927;42.61083040047189
46382;BME280;66809;52.974;-2.514;2023-02-28T01:27:48;1028.321613762258;;;4.996301269109436;42.66567568448949
46382;BME280;66809;52.974;-2.514;2023-02-28T01:29:47;1028.327615660268;;;4.976959152243889;42.72204458545018
46382;BME280;66809;52.974;-2.514;2023-02-28T01:31:48;1028.3355127103746;;;4.951435253242014;42.78151438578634
46382;BME280;66809;52.974;-2.514;2023-02-28T01:33:47;1028.34296658742;;;4.930160749309779;42.838575643704985
46382;BME280;66809;52.974;-2.514;2023-02-28T01:35:47;1028.3480223047209;;;4.912046449632096;42.89505508792492
46382;BME280;66809;52.974;-2.514;2023-02-28T01:37:48;1028.353043258345;;;4.8914338839913585;42.949980052022404
46382;BME280;66809;52.974;-2.514;2023-02-28T01:39:47;1028.3565982119123;;;4.874157973680213;43.0085630890468
46382;BME280;66809;52.974;-2.514;2023-02-28T01:41:47;1028.3593474182424;;;4.845103635430645;43.07023073479733
46382;BME280;66809;52.974;-2.514;2023-02-28T01:43:58;1028.3615638130061;;;4.820954018441987;43.131322993032335
46382;BME280;66809;52.974;-2.514;2023-02-28T01:45:47;1028.3627108457185;;;4.792435615157052;43.194514392691396
46382;BME280;66809;52.974;-2.514;2023-02-28T01:47:48;1028.3652960957563;;;4.755189800366821;43.265407829931334
46382;BME280;66809;52.974;-2.514;2023-02-28T01:49:48;1028.3695012365718;;;4.717465142822705;43.337419922603594
46382;BME280;66809;52.974;-2.514;2023-02-28T01:51:50;1028.3746354748912;;;4.670744219966325;43.414711397553695
46382;BME280;66809;52.974;-2.514;2023-02-28T01:53:50;1028.3804172873167;;;4.629255682791944;43.49316482802727
46382;BME280;66809;52.974;-2.514;2023-02-28T01:55:50;1028.38627994709;;;4.591724245756244;43.56362787857004
46382;BME280;66809;52.974;-2.514;2023-02-28T01:57:50;1028.3920515125287;;;4.5598885406431116;43.63628117989298
46382;BME280;66809;52.974;-2.514;2023-02-28T01:59:52;1028.3972036366126;;;4.518703722177107;43.71411455203853
46382;BME280;66809;52.974;-2.514;2023-02-28T02:01:48;1028.403853666701;;;4.49242936523186;43.80121040420594
46382;BME280;66809;52.974;-2.514;2023-02-28T02:03:48;1028.4101476144376;;;4.455888860761289;43.889647497538
46382;BME280;66809;52.974;-2.514;2023-02-28T02:05:48;1028.416400154522;;;4.435275375909453;43.97451845662612
46382;BME280;66809;52.974;-2.514;2023-02-28T02:07:51;1028.422014171287;;;4.399274364085145;44.050495397498246
46382;BME280;66809;52.974;-2.514;2023-02-28T02:09:47;1028.427889012515;;;4.359027613774634;44.12767723905588
46382;BME280;66809;52.974;-2.514;2023-02-28T02:11:47;1028.4330252147206;;;4.317799628233489;44.208458109659276
46382;BME280;66809;52.974;-2.514;2023-02-28T02:14:05;1028.4373791246446;;;4.273473247859503;44.28112893721519
46382;BME280;66809;52.974;-2.514;2023-02-28T02:15:56;1028.4410855990466;;;4.230029091895893;44.3553930517554
46382;BME280;66809;52.974;-2.514;2023-02-28T02:17:51;1028.4434937119133;;;4.1904562961044665;44.430215337203435
46382;BME280;66809;52.974;-2.514;2023-02-28T02:20:19;1028.4454969136953;;;4.148354681354602;44.50952969248171
46382;BME280;66809;52.974;-2.514;2023-02-28T02:22:07;1028.4471011395833;;;4.109922785881724;44.5912379391848
46382;BME280;66809;52.974;-2.514;2023-02-28T02:24:33;1028.449678984358;;;4.069432536943504;44.67812627900367
46382;BME280;66809;52.974;-2.514;2023-02-28T02:25:51;1028.4507343433422;;;4.040739255474865;44.76023675452969
46382;BME280;66809;52.974;-2.514;2023-02-28T02:28:05;1028.4505390762092;;;4.00829096178284;44.828695608306106
46382;BME280;66809;52.974;-2.514;2023-02-28T02:30:39;1028.4499655477407;;;3.965905484188039;44.90191698187382
46382;BME280;66809;52.974;-2.514;2023-02-28T02:32:02;1028.4467799821434;;;3.926734310259092;44.98366759000135
46382;BME280;66809;52.974;-2.514;2023-02-28T02:34:27;1028.4434758431548;;;3.8994255390422876;45.06275431002977
46382;BME280;66809;52.974;-2.514;2023-02-28T02:35:51;1028.4408755120692;;;3.8563056589230653;45.14411580390427
46382;BME280;66809;52.974;-2.514;2023-02-28T02:37:52;1028.4366816100298;;;3.8124901795283965;45.22484006018825
46382;BME280;66809;52.974;-2.514;2023-02-28T02:39:51;1028.4327431794309;;;3.7729997577195054;45.2974424703236
46382;BME280;66809;52.974;-2.514;2023-02-28T02:41:52;1028.4290577160461;;;3.7463392502306743;45.36826515644437
46382;BME280;66809;52.974;-2.514;2023-02-28T02:43:50;1028.4251555433837;;;3.703076580254215;45.435428463241045
46382;BME280;66809;52.974;-2.514;2023-02-28T02:45:50;1028.4217790819525;;;3.6609330575613326;45.49385421855915
46382;BME280;66809;52.974;-2.514;2023-02-28T02:47:48;1028.4184873073525;;;3.625048646998852;45.53524264441614
46382;BME280;66809;52.974;-2.514;2023-02-28T02:49:50;1028.4135114526014;;;3.6035891437794807;45.563430206025465
46382;BME280;66809;52.974;-2.514;2023-02-28T02:51:48;1028.4077834378377;;;3.588781893407626;45.57696320952409
46382;BME280;66809;52.974;-2.514;2023-02-28T02:53:50;1028.401367452367;;;3.5599463486241474;45.58684068697646
46382;BME280;66809;52.974;-2.514;2023-02-28T02:55:48;1028.394891398856;;;3.5423514940072116;45.5965427540223
46382;BME280;66809;52.974;-2.514;2023-02-28T02:57:51;1028.388180133506;;;3.5278333076230672;45.59655809609041
46382;BME280;66809;52.974;-2.514;2023-02-28T02:59:49;1028.38289965549;;;3.520925141941634;45.57064188272647
46382;BME280;66809;52.974;-2.514;2023-02-28T03:01:50;1028.3754017716014;;;3.505316519497067;45.54347534286752
46382;BME280;66809;52.974;-2.514;2023-02-28T03:03:48;1028.3668720595008;;;3.4940064215181206;45.504956910187325
46382;BME280;66809;52.974;-2.514;2023-02-28T03:05:49;1028.358781814244;;;3.4701497086652826;45.46152910225882
46382;BME280;66809;52.974;-2.514;2023-02-28T03:07:48;1028.3514615475626;;;3.466575632214683;45.40682061870977
46382;BME280;66809;52.974;-2.514;2023-02-28T03:09:51;1028.344379493186;;;3.4683059021452176;45.3504115030692
46382;BME280;66809;52.974;-2.514;2023-02-28T03:11:48;1028.3349349823252;;;3.463548946407798;45.288200688084245
46382;BME280;66809;52.974;-2.514;2023-02-28T03:13:59;1028.3265821844984;;;3.4567672402237277;45.22491778905488
46382;BME280;66809;52.974;-2.514;2023-02-28T03:15:58;1028.3180785895997;;;3.4628380503085947;45.15060307427991
46382;BME280;66809;52.974;-2.514;2023-02-28T03:18:01;1028.3088963736232;;;3.4680032250685766;45.068693949544695
46382;BME280;66809;52.974;-2.514;2023-02-28T03:19:54;1028.3003209976193;;;3.4697188426935335;44.97216896083069
46382;BME280;66809;52.974;-2.514;2023-02-28T03:21:54;1028.2939982013797;;;3.480122861396988;44.86842968786561
46382;BME280;66809;52.974;-2.514;2023-02-28T03:23:55;1028.289103754107;;;3.487828715561868;44.750533421375636
46382;BME280;66809;52.974;-2.514;2023-02-28T03:25:55;1028.2848413087495;;;3.4836721435036604;44.63608734746372
46382;BME280;66809;52.974;-2.514;2023-02-28T03:27:55;1028.2812498894239;;;3.4912334607163227;44.5247781346961
46382;BME280;66809;52.974;-2.514;2023-02-28T03:29:51;1028.2772265116932;;;3.5125966490009612;44.40515105589927
46382;BME280;66809;52.974;-2.514;2023-02-28T03:31:50;1028.2757791533047;;;3.534825174752599;44.27339547577247
46382;BME280;66809;52.974;-2.514;2023-02-28T03:33:53;1028.275323322741;;;3.544564185567739;44.1512498307891
46382;BME280;66809;52.974;-2.514;2023-02-28T03:35:51;1028.2746701767599;;;3.5605538727769472;44.02973329247119
46382;BME280;66809;52.974;-2.514;2023-02-28T03:37:49;1028.2748521564674;;;3.5731829839213702;43.9083766359647
46382;BME280;66809;52.974;-2.514;2023-02-28T03:39:51;1028.276423943047;;;3.598943138073364;43.78906701217102
46382;BME280;66809;52.974;-2.514;2023-02-28T03:41:52;1028.2783087255134;;;3.606806012044118;43.6682553159149
46382;BME280;66809;52.974;-2.514;2023-02-28T03:43:51;1028.2810644982753;;;3.6250304759000715;43.55292973381652
46382;BME280;66809;52.974;-2.514;2023-02-28T03:45:49;1028.284520081353;;;3.643641412676577;43.445312496552546
46382;BME280;66809;52.974;-2.514;2023-02-28T03:47:52;1028.2874960360966;;;3.6674091309621697;43.34617075274342
46382;BME280;66809;52.974;-2.514;2023-02-28T03:49:50;1028.2909845198387;;;3.6852458519616342;43.249846234357626
46382;BME280;66809;52.974;-2.514;2023-02-28T03:51:49;1028.2938979657733;;;3.711196659924925;43.15594078955566
46382;BME280;66809;52.974;-2.514;2023-02-28T03:53:50;1028.2967950349712;;;3.729876544769577;43.05631015363273
46382;BME280;66809;52.974;-2.514;2023-02-28T03:55:50;1028.3016108897286;;;3.7370014085352565;42.96008765690978
46382;BME280;66809;52.974;-2.514;2023-02-28T03:57:55;1028.3074264724712;;;3.739589489233276;42.881594788398296
46382;BME280;66809;52.974;-2.514;2023-02-28T03:59:49;1028.3127573731194;;;3.7500480126888216;42.822699987714365
46382;BME280;66809;52.974;-2.514;2023-02-28T04:01:49;1028.3195417110246;;;3.75862633119161;42.760929983791854
46382;BME280;66809;52.974;-2.514;2023-02-28T04:03:49;1028.3244547566392;;;3.782914526903503;42.700471040825484
46382;BME280;66809;52.974;-2.514;2023-02-28T04:05:50;1028.3292426714243;;;3.7992452488194126;42.650903828650456
46382;BME280;66809;52.974;-2.514;2023-02-28T04:07:48;1028.3331163049088;;;3.801500292984857;42.61031059649505
46382;BME280;66809;52.974;-2.514;2023-02-28T04:09:47;1028.3360413606738;;;3.7971420916495853;42.56662985468526
46382;BME280;66809;52.974;-2.514;2023-02-28T04:11:50;1028.340109979779;;;3.800958082185649;42.52728040140396
46382;BME280;66809;52.974;-2.514;2023-02-28T04:13:48;1028.3430451044567;;;3.818204562448199;42.490649214386416
46382;BME280;66809;52.974;-2.514;2023-02-28T04:15:47;1028.3453140782315;;;3.8192834012987786;42.45120950833723
46382;BME280;66809;52.974;-2.514;2023-02-28T04:17:47;1028.3479992467007;;;3.8238051173969168;42.418906220156785
46382;BME280;66809;52.974;-2.514;2023-02-28T04:19:48;1028.350591295805;;;3.8396300271491963;42.386199911521096
46382;BME280;66809;52.974;-2.514;2023-02-28T04:21:49;1028.3514150006733;;;3.838973425722107;42.35899069901712
46382;BME280;66809;52.974;-2.514;2023-02-28T04:23:47;1028.3500233301131;;;3.8388911397279517;42.33486704496353
46382;BME280;66809;52.974;-2.514;2023-02-28T04:25:48;1028.3487546768429;;;3.8464423326610393;42.30803117423748
46382;BME280;66809;52.974;-2.514;2023-02-28T04:27:47;1028.3470645800157;;;3.8412267487343863;42.281182272978484
46382;BME280;66809;52.974;-2.514;2023-02-28T04:29:47;1028.3456160721048;;;3.832877415889102;42.25895706926887
46382;BME280;66809;52.974;-2.514;2023-02-28T04:31:48;1028.3422391517533;;;3.822899927068938;42.23809606592363
46382;BME280;66809;52.974;-2.514;2023-02-28T04:33:47;1028.3382985041333;;;3.817491109138919;42.20892778534479
46382;BME280;66809;52.974;-2.514;2023-02-28T04:35:48;1028.3362906929062;;;3.8130887395662314;42.170958599653325
46382;BME280;66809;52.974;-2.514;2023-02-28T04:37:47;1028.336974123551;;;3.8106169821661826;42.136749056368856
46382;BME280;66809;52.974;-2.514;2023-02-28T04:39:47;1028.3384332511002;;;3.801644218919073;42.107363801722656
46382;BME280;66809;52.974;-2.514;2023-02-28T04:41:48;1028.3400504082308;;;3.793192346736516;42.0867670209976
46382;BME280;66809;52.974;-2.514;2023-02-28T04:43:48;1028.3413085151615;;;3.796964168269437;42.07177570581925
46382;BME280;66809;52.974;-2.514;2023-02-28T04:45:47;1028.3407555762856;;;3.7965843740559477;42.05698173971315
46382;BME280;66809;52.974;-2.514;2023-02-28T04:47:47;1028.3403634573062;;;3.7923164257389383;42.04189973104012
46382;BME280;66809;52.974;-2.514;2023-02-28T04:49:48;1028.3411212164726;;;3.7897774478078436;42.02873757734281
46382;BME280;66809;52.974;-2.514;2023-02-28T04:51:47;1028.342683744575;;;3.7851327130733305;42.018849412275976
46382;BME280;66809;52.974;-2.514;2023-02-28T04:53:48;1028.3444183939225;;;3.782173661175717;42.017664661372955
46382;BME280;66809;52.974;-2.514;2023-02-28T04:55:48;1028.3453023384648;;;3.7779998593805484;42.01757017835574
46382;BME280;66809;52.974;-2.514;2023-02-28T04:57:47;1028.347140601241;;;3.7801254322970217;42.0029928359456
46382;BME280;66809;52.974;-2.514;2023-02-28T04:59:48;1028.3491446240398;;;3.7766069458211526;41.993338179241775
46382;BME280;66809;52.974;-2.514;2023-02-28T05:01:49;1028.3514501939085;;;3.7768841945695866;41.979816308649625
46382;BME280;66809;52.974;-2.514;2023-02-28T05:03:48;1028.3558427377843;;;3.762007362879066;41.97489140984244
46382;BME280;66809;52.974;-2.514;2023-02-28T05:05:48;1028.3607106853053;;;3.7655275822911896;41.96852825545729
46382;BME280;66809;52.974;-2.514;2023-02-28T05:07:47;1028.365787515888;;;3.7718034886168548;41.961207599794605
46382;BME280;66809;52.974;-2.514;2023-02-28T05:09:47;1028.3709998908819;;;3.7834647463401834;41.94936381277242
46382;BME280;66809;52.974;-2.514;2023-02-28T05:11:48;1028.375922858641;;;3.7919771861030998;41.93433689846774
46382;BME280;66809;52.974;-2.514;2023-02-28T05:13:48;1028.381117036059;;;3.7971643822896968;41.92018129472437
46382;BME280;66809;52.974;-2.514;2023-02-28T05:15:47;1028.3870464981956;;;3.8181831672119193;41.90496612443027
46382;BME280;66809;52.974;-2.514;2023-02-28T05:17:47;1028.3942762459053;;;3.8302242423095545;41.88221458960979
46382;BME280;66809;52.974;-2.514;2023-02-28T05:19:47;1028.4005649040748;;;3.839208913013428;41.86748686611625
46382;BME280;66809;52.974;-2.514;2023-02-28T05:21:50;1028.4061344428749;;;3.8496284946572805;41.84569574812417
46382;BME280;66809;52.974;-2.514;2023-02-28T05:23:48;1028.4124242636615;;;3.8673706947447926;41.829695069505604
46382;BME280;66809;52.974;-2.514;2023-02-28T05:25:47;1028.4187106500806;;;3.8749589712168;41.81668734383597
46382;BME280;66809;52.974;-2.514;2023-02-28T05:27:48;1028.4264138791098;;;3.8888382188670434;41.81064056903719
46382;BME280;66809;52.974;-2.514;2023-02-28T05:29:48;1028.4346153746192;;;3.8992157831362575;41.80005709118134
46382;BME280;66809;52.974;-2.514;2023-02-28T05:31:48;1028.44255893348;;;3.9090052432892377;41.79836114673182
46382;BME280;66809;52.974;-2.514;2023-02-28T05:33:47;1028.450592161164;;;3.927750225805751;41.805065197092325
46382;BME280;66809;52.974;-2.514;2023-02-28T05:35:47;1028.4578386249732;;;3.9368490211269807;41.82402283469458
46382;BME280;66809;52.974;-2.514;2023-02-28T05:37:48;1028.4632837409015;;;3.942824193801616;41.84955308284808
46382;BME280;66809;52.974;-2.514;2023-02-28T05:39:47;1028.4689331891498;;;3.9448829919704593;41.87518519906747
46382;BME280;66809;52.974;-2.514;2023-02-28T05:41:48;1028.4749349074764;;;3.959879614511668;41.89155694227315
46382;BME280;66809;52.974;-2.514;2023-02-28T05:43:48;1028.4811991126314;;;3.961778789216823;41.90029189763538
46382;BME280;66809;52.974;-2.514;2023-02-28T05:45:48;1028.4884005466395;;;3.9613117669097027;41.904958891980755
46382;BME280;66809;52.974;-2.514;2023-02-28T05:47:47;1028.4955846628527;;;3.9783999182553376;41.91203264613251
46382;BME280;66809;52.974;-2.514;2023-02-28T05:49:48;1028.5030525746379;;;3.977185169524432;41.92345991310903
46382;BME280;66809;52.974;-2.514;2023-02-28T05:51:47;1028.5107602604994;;;3.9734486969247156;41.93142004083105
46382;BME280;66809;52.974;-2.514;2023-02-28T05:53:47;1028.518929047893;;;3.9838510048244506;41.94128793960376
46382;BME280;66809;52.974;-2.514;2023-02-28T05:55:48;1028.5266928762214;;;3.989017914651632;41.95994933718079
46382;BME280;66809;52.974;-2.514;2023-02-28T05:57:47;1028.5341485317522;;;3.998276350295762;41.9813318192494
46382;BME280;66809;52.974;-2.514;2023-02-28T05:59:48;1028.5406922520463;;;4.00473883081645;41.98861543807767
46382;BME280;66809;52.974;-2.514;2023-02-28T06:01:47;1028.5472371329686;;;4.01068707978315;41.99819909999373
46382;BME280;66809;52.974;-2.514;2023-02-28T06:03:47;1028.554127579984;;;4.0194330243062675;42.013300926510595
46382;BME280;66809;52.974;-2.514;2023-02-28T06:05:48;1028.5610557432074;;;4.023761531135264;42.02657001288555
46382;BME280;66809;52.974;-2.514;2023-02-28T06:07:47;1028.5675720048257;;;4.037151770315526;42.041384579757754
46382;BME280;66809;52.974;-2.514;2023-02-28T06:09:48;1028.5744049512898;;;4.047576284576043;42.05406383274266
46382;BME280;66809;52.974;-2.514;2023-02-28T06:11:47;1028.581527266319;;;4.05029836994012;42.06528353103306
46382;BME280;66809;52.974;-2.514;2023-02-28T06:13:47;1028.5903206701898;;;4.043509961833918;42.08623062232382
46382;BME280;66809;52.974;-2.514;2023-02-28T06:15:48;1028.599060703719;;;4.036771961301893;42.111237896054554
46382;BME280;66809;52.974;-2.514;2023-02-28T06:17:47;1028.6076437385836;;;4.034300175931599;42.136729905718724
46382;BME280;66809;52.974;-2.514;2023-02-28T06:19:48;1028.616877285776;;;4.020523464578619;42.1613451120086
46382;BME280;66809;52.974;-2.514;2023-02-28T06:21:49;1028.6263177499839;;;4.016312575892417;42.193011890599834
46382;BME280;66809;52.974;-2.514;2023-02-28T06:23:47;1028.6366409770353;;;4.006625659622451;42.22882515667946
46382;BME280;66809;52.974;-2.514;2023-02-28T06:25:48;1028.6463964927655;;;4.003683399985998;42.26986038528806
46382;BME280;66809;52.974;-2.514;2023-02-28T06:27:48;1028.6554457865595;;;4.001465406133948;42.306957065191426
46382;BME280;66809;52.974;-2.514;2023-02-28T06:29:47;1028.6654964603424;;;4.00242317665509;42.34252243348779
46382;BME280;66809;52.974;-2.514;2023-02-28T06:31:48;1028.6750927365208;;;4.012242783500484;42.370372593293006
46382;BME280;66809;52.974;-2.514;2023-02-28T06:33:48;1028.6853328236684;;;4.0148526366468245;42.38661958818373
46382;BME280;66809;52.974;-2.514;2023-02-28T06:35:50;1028.6947772348785;;;4.031796704357897;42.39931985055531
46382;BME280;66809;52.974;-2.514;2023-02-28T06:37:48;1028.7051823407276;;;4.03626803372346;42.40399079122559
46382;BME280;66809;52.974;-2.514;2023-02-28T06:39:48;1028.715123012419;;;4.046517848010342;42.413884537389805
46382;BME280;66809;52.974;-2.514;2023-02-28T06:41:47;1028.725044442811;;;4.053282791324753;42.425910534107544
46382;BME280;66809;52.974;-2.514;2023-02-28T06:43:48;1028.7347711886785;;;4.054511627585849;42.434089586396894
46382;BME280;66809;52.974;-2.514;2023-02-28T06:45:48;1028.7451855744077;;;4.077977020709715;42.43765183937545
46382;BME280;66809;52.974;-2.514;2023-02-28T06:47:48;1028.7568432947244;;;4.077073626933645;42.433561481424235
46382;BME280;66809;52.974;-2.514;2023-02-28T06:49:48;1028.767640821311;;;4.081223961888345;42.44101672722623
46382;BME280;66809;52.974;-2.514;2023-02-28T06:51:47;1028.7781586020815;;;4.081660839868983;42.458117917990606
46382;BME280;66809;52.974;-2.514;2023-02-28T06:53:47;1028.7888041977633;;;4.081760380374103;42.47968227666888
46382;BME280;66809;52.974;-2.514;2023-02-28T06:55:48;1028.7976928884032;;;4.090691165854218;42.49102357666911
46382;BME280;66809;52.974;-2.514;2023-02-28T06:57:47;1028.8068933526763;;;4.091348227674573;42.4919145437448
46382;BME280;66809;52.974;-2.514;2023-02-28T06:59:47;1028.8174239291243;;;4.098244113033794;42.51037959274103
46382;BME280;66809;52.974;-2.514;2023-02-28T07:01:47;1028.8277318561504;;;4.107307582379006;42.53000801429404
46382;BME280;66809;52.974;-2.514;2023-02-28T07:03:48;1028.838320089147;;;4.101268651263289;42.551931984230905
46382;BME280;66809;52.974;-2.514;2023-02-28T07:05:47;1028.8483980218564;;;4.087097079476143;42.57961396849828
46382;BME280;66809;52.974;-2.514;2023-02-28T07:07:48;1028.8582876667547;;;4.060778697756425;42.61855850178017
46382;BME280;66809;52.974;-2.514;2023-02-28T07:09:47;1028.8679723471244;;;4.043269998146856;42.66571087558806
46382;BME280;66809;52.974;-2.514;2023-02-28T07:11:47;1028.8786593428515;;;4.028903454301866;42.71278480305329